createdAt,value
2023-06-30T00:03:26.490Z,20.05
2023-06-30T00:08:29.296Z,20.75
2023-06-30T00:13:31.912Z,19.55
2023-06-30T00:18:34.518Z,18.08
2023-06-30T00:23:37.178Z,18.16
2023-06-30T00:28:39.840Z,19.77
2023-06-30T00:33:42.563Z,20.53
2023-06-30T00:38:46.001Z,20.09
2023-06-30T00:43:48.680Z,18.39
2023-06-30T00:48:51.281Z,18.94
2023-06-30T00:53:53.954Z,20.22
2023-06-30T00:58:58.362Z,20.64
2023-06-30T01:04:17.786Z,19.23
2023-06-30T01:09:24.950Z,17.87
2023-06-30T01:14:30.501Z,18.17
2023-06-30T01:19:46.001Z,19.77
2023-06-30T01:24:52.089Z,20.45
2023-06-30T01:29:55.356Z,19.28
2023-06-30T01:34:57.986Z,17.76
2023-06-30T01:40:01.562Z,18.14
2023-06-30T01:45:05.964Z,19.61
2023-06-30T01:50:09.145Z,20.26
2023-06-30T01:55:11.746Z,19.85
2023-06-30T02:00:15.216Z,18.03
2023-06-30T02:05:17.852Z,18.19
2023-06-30T02:10:20.497Z,19.50
2023-06-30T02:15:23.160Z,20.14
2023-06-30T02:20:26.001Z,20.51
2023-06-30T02:25:28.634Z,19.26
2023-06-30T02:30:31.314Z,17.67
2023-06-30T02:35:33.977Z,18.28
2023-06-30T02:40:37.726Z,19.68
2023-06-30T02:45:40.569Z,20.35
2023-06-30T02:50:44.854Z,19.47
2023-06-30T02:55:47.817Z,18.43
2023-06-30T03:00:50.895Z,19.84
2023-06-30T03:05:53.627Z,20.57
2023-06-30T03:10:56.258Z,19.33
2023-06-30T03:15:58.920Z,18.01
2023-06-30T03:21:01.482Z,18.30
2023-06-30T03:26:04.033Z,20.15
2023-06-30T03:31:06.674Z,20.95
2023-06-30T03:36:10.797Z,20.67
2023-06-30T03:41:13.398Z,19.13
2023-06-30T03:46:16.975Z,19.13
2023-06-30T03:51:19.747Z,20.94
2023-06-30T03:56:22.431Z,21.24
2023-06-30T04:01:26.961Z,19.92
2023-06-30T04:06:29.615Z,19.08
2023-06-30T04:11:32.284Z,19.61
2023-06-30T04:16:34.906Z,21.52
2023-06-30T04:21:37.549Z,20.80
2023-06-30T04:26:41.200Z,19.83
2023-06-30T04:31:44.119Z,19.32
2023-06-30T04:36:46.881Z,19.87
2023-06-30T04:41:49.436Z,21.96
2023-06-30T04:46:51.959Z,21.74
2023-06-30T04:51:54.555Z,21.02
2023-06-30T04:56:57.775Z,20.73
2023-06-30T05:02:01.553Z,20.58
2023-06-30T05:07:04.620Z,20.52
2023-06-30T05:12:07.795Z,21.45
2023-06-30T05:17:10.601Z,23.42
2023-06-30T05:22:13.254Z,22.86
2023-06-30T05:27:15.870Z,22.38
2023-06-30T05:32:18.518Z,22.36
2023-06-30T05:37:21.218Z,22.48
2023-06-30T05:42:23.915Z,22.77
2023-06-30T05:47:26.483Z,23.03
2023-06-30T05:52:29.125Z,23.29
2023-06-30T05:57:31.732Z,23.63
2023-06-30T06:02:35.471Z,23.83
2023-06-30T06:07:38.484Z,23.92
2023-06-30T06:12:41.321Z,23.86
2023-06-30T06:17:43.983Z,23.96
2023-06-30T06:22:46.719Z,24.09
2023-06-30T06:27:49.335Z,24.17
2023-06-30T06:32:51.936Z,24.30
2023-06-30T06:37:54.648Z,24.64
2023-06-30T06:42:57.895Z,24.94
2023-06-30T06:48:27.133Z,25.14
2023-06-30T06:53:32.049Z,25.13
2023-06-30T06:58:39.427Z,25.24
2023-06-30T07:03:42.132Z,25.28
2023-06-30T07:08:44.865Z,25.46
2023-06-30T07:13:47.444Z,25.74
2023-06-30T07:18:50.158Z,25.81
2023-06-30T07:23:53.461Z,25.76
2023-06-30T07:28:56.037Z,25.86
2023-06-30T07:33:58.599Z,25.83
2023-06-30T07:39:01.198Z,25.59
2023-06-30T07:44:04.297Z,25.27
2023-06-30T07:49:06.933Z,25.13
2023-06-30T07:54:09.476Z,25.24
2023-06-30T07:59:12.224Z,25.45
2023-06-30T08:04:15.111Z,25.53
2023-06-30T08:09:17.882Z,25.68
2023-06-30T08:14:20.869Z,25.83
2023-06-30T08:19:45.298Z,26.09
2023-06-30T08:24:46.619Z,26.48
2023-06-30T08:29:49.817Z,26.78
2023-06-30T08:34:52.506Z,26.93
2023-06-30T08:39:55.108Z,27.06
2023-06-30T08:44:58.703Z,27.24
2023-06-30T08:50:02.705Z,27.40
2023-06-30T08:55:07.921Z,27.55
2023-06-30T09:00:11.480Z,27.54
2023-06-30T09:05:14.873Z,27.70
2023-06-30T09:10:17.971Z,28.16
2023-06-30T09:15:21.186Z,28.44
2023-06-30T09:20:23.892Z,28.56
2023-06-30T09:25:26.718Z,28.78
2023-06-30T09:30:44.042Z,28.94
2023-06-30T09:35:48.773Z,28.93
2023-06-30T09:40:52.113Z,28.85
2023-06-30T09:45:56.827Z,29.00
2023-06-30T09:51:00.315Z,29.31
2023-06-30T09:56:03.437Z,29.57
2023-06-30T10:01:06.114Z,29.64
2023-06-30T10:06:08.932Z,29.72
2023-06-30T10:11:11.622Z,29.58
2023-06-30T10:16:16.937Z,29.38
2023-06-30T10:21:19.835Z,29.28
2023-06-30T10:26:23.456Z,29.19
2023-06-30T10:31:26.992Z,29.20
2023-06-30T10:36:30.013Z,29.04
2023-06-30T10:41:45.971Z,28.82
2023-06-30T10:46:48.709Z,28.54
2023-06-30T10:51:52.952Z,28.29
2023-06-30T10:57:12.405Z,28.36
2023-06-30T11:02:18.112Z,28.61
2023-06-30T11:07:24.960Z,28.79
2023-06-30T11:12:48.903Z,28.60
2023-06-30T11:17:55.755Z,28.58
2023-06-30T11:23:01.924Z,28.78
2023-06-30T11:28:06.846Z,28.69
2023-06-30T11:33:09.608Z,28.44
2023-06-30T11:38:12.834Z,28.11
2023-06-30T11:43:15.553Z,27.78
2023-06-30T11:48:18.253Z,27.57
2023-06-30T11:53:20.886Z,27.55
2023-06-30T11:58:23.501Z,27.46
2023-06-30T12:03:28.287Z,27.40
2023-06-30T12:08:31.986Z,27.51
2023-06-30T12:13:34.886Z,27.76
2023-06-30T12:18:38.186Z,28.02
2023-06-30T12:23:43.212Z,28.03
2023-06-30T12:28:45.834Z,27.79
2023-06-30T12:33:54.688Z,27.73
2023-06-30T12:38:57.401Z,27.84
2023-06-30T12:44:02.377Z,28.24
2023-06-30T12:49:06.535Z,28.42
2023-06-30T12:54:09.132Z,28.39
2023-06-30T12:59:11.778Z,28.24
2023-06-30T13:04:14.424Z,28.14
2023-06-30T13:09:19.843Z,28.08
2023-06-30T13:14:22.466Z,27.89
2023-06-30T13:19:26.185Z,27.67
2023-06-30T13:24:28.833Z,27.56
2023-06-30T13:29:32.993Z,27.36
2023-06-30T13:34:35.644Z,27.18
2023-06-30T13:39:38.368Z,26.94
2023-06-30T13:44:41.044Z,26.76
2023-06-30T13:49:43.617Z,26.71
2023-06-30T13:54:46.213Z,26.65
2023-06-30T13:59:49.279Z,26.78
2023-06-30T14:04:51.971Z,27.16
2023-06-30T14:09:57.129Z,27.66
2023-06-30T14:14:59.799Z,28.21
2023-06-30T14:20:02.640Z,28.86
2023-06-30T14:25:05.690Z,29.69
2023-06-30T14:30:09.214Z,30.86
2023-06-30T14:35:12.619Z,32.23
2023-06-30T14:40:15.467Z,33.00
2023-06-30T14:45:18.807Z,32.94
2023-06-30T14:50:21.459Z,32.67
2023-06-30T14:55:24.045Z,33.07
2023-06-30T15:00:26.641Z,33.11
2023-06-30T15:05:33.135Z,32.72
2023-06-30T15:10:35.820Z,32.59
2023-06-30T15:15:38.441Z,32.26
2023-06-30T15:20:41.005Z,31.39
2023-06-30T15:25:43.872Z,30.74
2023-06-30T15:30:47.276Z,30.36
2023-06-30T15:35:50.164Z,30.25
2023-06-30T15:40:59.362Z,30.60
2023-06-30T15:46:02.542Z,30.70
2023-06-30T15:51:05.307Z,30.31
2023-06-30T15:56:07.905Z,29.75
2023-06-30T16:01:10.680Z,29.15
2023-06-30T16:06:13.266Z,28.50
2023-06-30T16:11:15.877Z,27.69
2023-06-30T16:16:18.684Z,26.87
2023-06-30T16:21:21.462Z,26.10
2023-06-30T16:26:24.103Z,25.40
2023-06-30T16:31:26.695Z,24.60
2023-06-30T16:36:29.294Z,23.28
2023-06-30T16:41:31.833Z,23.47
2023-06-30T16:46:34.443Z,23.28
2023-06-30T16:51:38.385Z,23.07
2023-06-30T16:56:40.954Z,22.89
2023-06-30T17:01:43.569Z,22.88
2023-06-30T17:06:46.140Z,22.98
2023-06-30T17:11:49.976Z,23.13
2023-06-30T17:16:52.714Z,23.28
2023-06-30T17:21:55.451Z,23.34
2023-06-30T17:26:58.131Z,23.51
2023-06-30T17:32:01.607Z,23.55
2023-06-30T17:37:08.217Z,23.58
2023-06-30T17:42:10.841Z,23.60
2023-06-30T17:47:13.377Z,23.64
2023-06-30T17:52:16.207Z,23.69
2023-06-30T17:57:18.948Z,23.69
2023-06-30T18:02:21.630Z,23.68
2023-06-30T18:07:24.537Z,23.82
2023-06-30T18:12:27.131Z,23.94
2023-06-30T18:17:29.734Z,24.07
2023-06-30T18:22:32.677Z,24.07
2023-06-30T18:27:35.585Z,24.13
2023-06-30T18:32:38.256Z,24.06
2023-06-30T18:37:41.869Z,24.00
2023-06-30T18:42:44.489Z,23.92
2023-06-30T18:47:47.592Z,23.92
2023-06-30T18:52:50.298Z,23.89
2023-06-30T18:57:52.920Z,23.76
2023-06-30T19:02:55.689Z,23.62
2023-06-30T19:07:58.433Z,23.58
2023-06-30T19:13:01.005Z,23.42
2023-06-30T19:18:03.676Z,23.38
2023-06-30T19:23:10.308Z,23.37
2023-06-30T19:28:13.848Z,23.49
2023-06-30T19:33:16.649Z,23.61
2023-06-30T19:38:19.212Z,23.64
2023-06-30T19:43:22.555Z,23.65
2023-06-30T19:48:25.192Z,23.69
2023-06-30T19:53:28.096Z,23.73
2023-06-30T19:58:30.840Z,23.70
2023-06-30T20:03:33.556Z,23.79
2023-06-30T20:08:36.217Z,23.95
2023-06-30T20:13:40.057Z,23.96
2023-06-30T20:18:42.689Z,24.01
2023-06-30T20:23:45.407Z,24.17
2023-06-30T20:28:47.989Z,24.33
2023-06-30T20:33:50.600Z,24.20
2023-06-30T20:38:53.238Z,24.08
2023-06-30T20:43:57.726Z,24.09
2023-06-30T20:49:00.324Z,24.06
2023-06-30T20:54:03.033Z,24.00
2023-06-30T20:59:05.654Z,23.93
2023-06-30T21:04:08.624Z,23.86
2023-06-30T21:09:11.344Z,23.69
2023-06-30T21:14:14.096Z,23.47
2023-06-30T21:19:16.961Z,23.28
2023-06-30T21:24:19.703Z,23.20
2023-06-30T21:29:22.298Z,23.21
2023-06-30T21:34:24.898Z,23.10
2023-06-30T21:39:27.528Z,23.02
2023-06-30T21:44:30.122Z,22.88
2023-06-30T21:49:32.697Z,22.79
2023-06-30T21:54:47.021Z,22.78
2023-06-30T21:59:50.889Z,22.71
2023-06-30T22:04:53.631Z,22.71
2023-06-30T22:09:56.265Z,22.40
2023-06-30T22:14:58.872Z,22.09
2023-06-30T22:20:01.504Z,21.73
2023-06-30T22:25:04.427Z,21.58
2023-06-30T22:30:07.514Z,21.54
2023-06-30T22:35:10.110Z,21.59
2023-06-30T22:40:13.455Z,21.69
2023-06-30T22:45:16.149Z,21.71
2023-06-30T22:50:18.827Z,21.73
2023-06-30T22:55:21.482Z,21.72
2023-06-30T23:00:24.161Z,21.63
2023-06-30T23:05:27.881Z,21.65
2023-06-30T23:10:30.677Z,21.69
2023-06-30T23:15:33.290Z,21.63
2023-06-30T23:20:35.848Z,21.56
2023-06-30T23:25:38.704Z,21.61
2023-06-30T23:30:43.719Z,21.50
2023-06-30T23:35:46.346Z,21.40
2023-06-30T23:40:49.118Z,21.28
2023-06-30T23:45:51.907Z,21.14
2023-06-30T23:50:54.561Z,21.20
2023-06-30T23:55:57.252Z,21.09
